sensor_id;sensor_type;location;lat;lon;timestamp;P1;durP1;ratioP1;P2;durP2;ratioP2
1685;SDS011;840;47.980;7.830;2023-02-11T00:02:00;25.60;;;16.73;;
1685;SDS011;840;47.980;7.830;2023-02-11T00:04:29;23.83;;;18.17;;
1685;SDS011;840;47.980;7.830;2023-02-11T00:06:56;21.80;;;16.17;;
1685;SDS011;840;47.980;7.830;2023-02-11T00:09:24;26.90;;;16.10;;
1685;SDS011;840;47.980;7.830;2023-02-11T00:11:51;17.80;;;14.00;;
1685;SDS011;840;47.980;7.830;2023-02-11T00:14:18;24.90;;;16.57;;
1685;SDS011;840;47.980;7.830;2023-02-11T00:16:46;25.30;;;16.90;;
1685;SDS011;840;47.980;7.830;2023-02-11T00:19:16;20.97;;;15.10;;
1685;SDS011;840;47.980;7.830;2023-02-11T00:21:43;19.00;;;16.83;;
1685;SDS011;840;47.980;7.830;2023-02-11T00:24:10;24.30;;;18.00;;
1685;SDS011;840;47.980;7.830;2023-02-11T00:26:37;20.80;;;18.00;;
1685;SDS011;840;47.980;7.830;2023-02-11T00:29:04;20.03;;;17.00;;
1685;SDS011;840;47.980;7.830;2023-02-11T00:31:31;25.40;;;14.80;;
1685;SDS011;840;47.980;7.830;2023-02-11T00:33:59;21.67;;;15.47;;
1685;SDS011;840;47.980;7.830;2023-02-11T00:36:28;23.70;;;19.63;;
1685;SDS011;840;47.980;7.830;2023-02-11T00:38:56;26.27;;;18.73;;
1685;SDS011;840;47.980;7.830;2023-02-11T00:41:23;24.87;;;17.73;;
1685;SDS011;840;47.980;7.830;2023-02-11T00:43:51;27.40;;;20.50;;
1685;SDS011;840;47.980;7.830;2023-02-11T00:46:18;26.63;;;19.33;;
1685;SDS011;840;47.980;7.830;2023-02-11T00:48:45;26.97;;;18.60;;
1685;SDS011;840;47.980;7.830;2023-02-11T00:51:12;27.17;;;19.57;;
1685;SDS011;840;47.980;7.830;2023-02-11T00:53:40;22.63;;;18.83;;
1685;SDS011;840;47.980;7.830;2023-02-11T00:56:07;29.97;;;20.17;;
1685;SDS011;840;47.980;7.830;2023-02-11T00:58:34;27.50;;;19.50;;
1685;SDS011;840;47.980;7.830;2023-02-11T01:01:01;32.03;;;20.77;;
1685;SDS011;840;47.980;7.830;2023-02-11T01:03:28;28.70;;;20.30;;
1685;SDS011;840;47.980;7.830;2023-02-11T01:05:55;26.23;;;17.50;;
1685;SDS011;840;47.980;7.830;2023-02-11T01:08:22;25.73;;;19.40;;
1685;SDS011;840;47.980;7.830;2023-02-11T01:10:55;24.70;;;17.80;;
1685;SDS011;840;47.980;7.830;2023-02-11T01:13:23;22.77;;;15.10;;
1685;SDS011;840;47.980;7.830;2023-02-11T01:15:51;21.97;;;15.60;;
1685;SDS011;840;47.980;7.830;2023-02-11T01:18:18;20.90;;;15.70;;
1685;SDS011;840;47.980;7.830;2023-02-11T01:20:45;21.00;;;15.33;;
1685;SDS011;840;47.980;7.830;2023-02-11T01:23:12;19.30;;;15.17;;
1685;SDS011;840;47.980;7.830;2023-02-11T01:25:39;23.70;;;17.40;;
1685;SDS011;840;47.980;7.830;2023-02-11T01:28:10;23.27;;;16.90;;
1685;SDS011;840;47.980;7.830;2023-02-11T01:30:41;22.63;;;16.30;;
1685;SDS011;840;47.980;7.830;2023-02-11T01:33:08;27.97;;;16.87;;
1685;SDS011;840;47.980;7.830;2023-02-11T01:35:36;23.33;;;16.60;;
1685;SDS011;840;47.980;7.830;2023-02-11T01:38:03;19.70;;;16.40;;
1685;SDS011;840;47.980;7.830;2023-02-11T01:40:30;26.47;;;17.70;;
1685;SDS011;840;47.980;7.830;2023-02-11T01:42:57;21.40;;;15.57;;
1685;SDS011;840;47.980;7.830;2023-02-11T01:48:21;22.73;;;16.10;;
1685;SDS011;840;47.980;7.830;2023-02-11T01:50:53;24.43;;;17.17;;
1685;SDS011;840;47.980;7.830;2023-02-11T01:53:24;23.67;;;16.97;;
1685;SDS011;840;47.980;7.830;2023-02-11T01:56:08;28.80;;;16.23;;
1685;SDS011;840;47.980;7.830;2023-02-11T01:58:55;22.50;;;16.90;;
1685;SDS011;840;47.980;7.830;2023-02-11T02:01:29;24.03;;;16.60;;
1685;SDS011;840;47.980;7.830;2023-02-11T02:03:58;26.47;;;16.80;;
1685;SDS011;840;47.980;7.830;2023-02-11T02:06:29;23.83;;;17.20;;
1685;SDS011;840;47.980;7.830;2023-02-11T02:09:01;23.17;;;16.80;;
1685;SDS011;840;47.980;7.830;2023-02-11T02:11:31;21.63;;;16.20;;
1685;SDS011;840;47.980;7.830;2023-02-11T02:13:58;23.70;;;16.07;;
1685;SDS011;840;47.980;7.830;2023-02-11T02:16:25;21.80;;;17.43;;
1685;SDS011;840;47.980;7.830;2023-02-11T02:19:01;22.00;;;15.60;;
1685;SDS011;840;47.980;7.830;2023-02-11T02:22:13;22.70;;;15.47;;
1685;SDS011;840;47.980;7.830;2023-02-11T02:25:09;20.07;;;14.67;;
1685;SDS011;840;47.980;7.830;2023-02-11T02:27:47;19.30;;;15.23;;
1685;SDS011;840;47.980;7.830;2023-02-11T02:30:26;18.53;;;14.37;;
1685;SDS011;840;47.980;7.830;2023-02-11T02:36:13;19.03;;;14.00;;
1685;SDS011;840;47.980;7.830;2023-02-11T02:38:59;21.07;;;13.27;;
1685;SDS011;840;47.980;7.830;2023-02-11T02:41:28;19.00;;;14.27;;
1685;SDS011;840;47.980;7.830;2023-02-11T02:43:58;16.60;;;13.33;;
1685;SDS011;840;47.980;7.830;2023-02-11T02:46:27;19.65;;;15.10;;
1685;SDS011;840;47.980;7.830;2023-02-11T02:49:06;16.30;;;13.43;;
1685;SDS011;840;47.980;7.830;2023-02-11T02:51:41;18.30;;;14.50;;
1685;SDS011;840;47.980;7.830;2023-02-11T02:54:27;23.60;;;14.57;;
1685;SDS011;840;47.980;7.830;2023-02-11T02:57:07;18.40;;;14.33;;
1685;SDS011;840;47.980;7.830;2023-02-11T02:59:47;15.60;;;12.17;;
1685;SDS011;840;47.980;7.830;2023-02-11T03:02:29;24.23;;;14.02;;
1685;SDS011;840;47.980;7.830;2023-02-11T03:05:02;17.77;;;13.17;;
1685;SDS011;840;47.980;7.830;2023-02-11T03:07:35;20.97;;;11.93;;
1685;SDS011;840;47.980;7.830;2023-02-11T03:10:07;15.23;;;10.43;;
1685;SDS011;840;47.980;7.830;2023-02-11T03:12:37;18.67;;;12.27;;
1685;SDS011;840;47.980;7.830;2023-02-11T03:15:07;16.40;;;14.10;;
1685;SDS011;840;47.980;7.830;2023-02-11T03:17:37;23.17;;;15.97;;
1685;SDS011;840;47.980;7.830;2023-02-11T03:20:08;19.30;;;14.10;;
1685;SDS011;840;47.980;7.830;2023-02-11T03:22:51;23.93;;;16.80;;
1685;SDS011;840;47.980;7.830;2023-02-11T03:25:36;22.40;;;16.67;;
1685;SDS011;840;47.980;7.830;2023-02-11T03:28:07;20.87;;;14.33;;
1685;SDS011;840;47.980;7.830;2023-02-11T03:30:41;23.07;;;16.37;;
1685;SDS011;840;47.980;7.830;2023-02-11T03:33:13;20.93;;;16.10;;
1685;SDS011;840;47.980;7.830;2023-02-11T03:35:47;16.77;;;12.70;;
1685;SDS011;840;47.980;7.830;2023-02-11T03:38:19;17.17;;;12.20;;
1685;SDS011;840;47.980;7.830;2023-02-11T03:40:48;18.53;;;13.20;;
1685;SDS011;840;47.980;7.830;2023-02-11T03:43:16;20.73;;;13.70;;
1685;SDS011;840;47.980;7.830;2023-02-11T03:45:46;17.70;;;12.40;;
1685;SDS011;840;47.980;7.830;2023-02-11T03:48:17;17.00;;;13.00;;
1685;SDS011;840;47.980;7.830;2023-02-11T03:50:50;21.70;;;14.07;;
1685;SDS011;840;47.980;7.830;2023-02-11T03:53:19;19.42;;;12.77;;
1685;SDS011;840;47.980;7.830;2023-02-11T03:55:48;16.90;;;12.50;;
1685;SDS011;840;47.980;7.830;2023-02-11T03:58:17;13.50;;;11.03;;
1685;SDS011;840;47.980;7.830;2023-02-11T04:00:44;17.85;;;12.13;;
1685;SDS011;840;47.980;7.830;2023-02-11T04:03:11;16.53;;;11.07;;
1685;SDS011;840;47.980;7.830;2023-02-11T04:05:38;16.70;;;12.63;;
1685;SDS011;840;47.980;7.830;2023-02-11T04:08:06;14.75;;;12.30;;
1685;SDS011;840;47.980;7.830;2023-02-11T04:10:34;22.30;;;14.70;;
1685;SDS011;840;47.980;7.830;2023-02-11T04:13:02;20.50;;;15.23;;
1685;SDS011;840;47.980;7.830;2023-02-11T04:15:29;19.70;;;13.50;;
1685;SDS011;840;47.980;7.830;2023-02-11T04:17:55;17.53;;;13.43;;
1685;SDS011;840;47.980;7.830;2023-02-11T04:20:22;17.10;;;11.90;;
1685;SDS011;840;47.980;7.830;2023-02-11T04:22:50;15.50;;;11.83;;
1685;SDS011;840;47.980;7.830;2023-02-11T04:25:18;14.30;;;11.80;;
1685;SDS011;840;47.980;7.830;2023-02-11T04:27:45;16.30;;;12.63;;
1685;SDS011;840;47.980;7.830;2023-02-11T04:30:12;22.63;;;14.57;;
1685;SDS011;840;47.980;7.830;2023-02-11T04:32:39;18.52;;;11.27;;
1685;SDS011;840;47.980;7.830;2023-02-11T04:35:06;14.85;;;11.23;;
1685;SDS011;840;47.980;7.830;2023-02-11T04:37:33;15.10;;;11.13;;
1685;SDS011;840;47.980;7.830;2023-02-11T04:40:00;16.33;;;11.63;;
1685;SDS011;840;47.980;7.830;2023-02-11T04:42:29;12.30;;;9.70;;
1685;SDS011;840;47.980;7.830;2023-02-11T04:44:56;14.00;;;10.60;;
1685;SDS011;840;47.980;7.830;2023-02-11T04:47:23;13.10;;;10.50;;
1685;SDS011;840;47.980;7.830;2023-02-11T04:49:52;15.23;;;9.83;;
1685;SDS011;840;47.980;7.830;2023-02-11T04:52:19;13.75;;;9.80;;
1685;SDS011;840;47.980;7.830;2023-02-11T04:54:46;14.30;;;9.27;;
1685;SDS011;840;47.980;7.830;2023-02-11T04:57:14;12.87;;;9.97;;
1685;SDS011;840;47.980;7.830;2023-02-11T04:59:45;10.63;;;8.97;;
1685;SDS011;840;47.980;7.830;2023-02-11T05:02:12;14.80;;;13.13;;
1685;SDS011;840;47.980;7.830;2023-02-11T05:04:40;12.70;;;9.70;;
1685;SDS011;840;47.980;7.830;2023-02-11T05:07:06;12.00;;;10.20;;
1685;SDS011;840;47.980;7.830;2023-02-11T05:09:34;10.60;;;9.40;;
1685;SDS011;840;47.980;7.830;2023-02-11T05:12:01;13.50;;;9.90;;
1685;SDS011;840;47.980;7.830;2023-02-11T05:14:28;14.43;;;11.10;;
1685;SDS011;840;47.980;7.830;2023-02-11T05:16:58;16.10;;;11.50;;
1685;SDS011;840;47.980;7.830;2023-02-11T05:19:26;17.20;;;11.67;;
1685;SDS011;840;47.980;7.830;2023-02-11T05:21:53;15.07;;;9.37;;
1685;SDS011;840;47.980;7.830;2023-02-11T05:24:21;16.67;;;12.00;;
1685;SDS011;840;47.980;7.830;2023-02-11T05:26:54;11.87;;;9.97;;
1685;SDS011;840;47.980;7.830;2023-02-11T05:29:21;14.27;;;10.10;;
1685;SDS011;840;47.980;7.830;2023-02-11T05:31:48;16.40;;;11.53;;
1685;SDS011;840;47.980;7.830;2023-02-11T05:34:17;14.87;;;10.17;;
1685;SDS011;840;47.980;7.830;2023-02-11T05:36:48;15.45;;;12.13;;
1685;SDS011;840;47.980;7.830;2023-02-11T05:39:14;13.80;;;10.67;;
1685;SDS011;840;47.980;7.830;2023-02-11T05:41:41;15.03;;;11.47;;
1685;SDS011;840;47.980;7.830;2023-02-11T05:44:09;13.37;;;10.47;;
1685;SDS011;840;47.980;7.830;2023-02-11T05:46:37;16.95;;;11.82;;
1685;SDS011;840;47.980;7.830;2023-02-11T05:49:05;15.07;;;9.90;;
1685;SDS011;840;47.980;7.830;2023-02-11T05:51:35;18.02;;;11.07;;
1685;SDS011;840;47.980;7.830;2023-02-11T05:54:03;13.18;;;11.07;;
1685;SDS011;840;47.980;7.830;2023-02-11T05:56:33;11.18;;;9.02;;
1685;SDS011;840;47.980;7.830;2023-02-11T05:59:01;12.15;;;8.57;;
1685;SDS011;840;47.980;7.830;2023-02-11T06:01:28;12.27;;;9.52;;
1685;SDS011;840;47.980;7.830;2023-02-11T06:03:56;11.90;;;7.60;;
1685;SDS011;840;47.980;7.830;2023-02-11T06:06:24;10.83;;;8.70;;
1685;SDS011;840;47.980;7.830;2023-02-11T06:08:55;8.38;;;7.30;;
1685;SDS011;840;47.980;7.830;2023-02-11T06:11:25;11.43;;;8.20;;
1685;SDS011;840;47.980;7.830;2023-02-11T06:14:00;13.93;;;8.85;;
1685;SDS011;840;47.980;7.830;2023-02-11T06:16:34;11.17;;;8.67;;
1685;SDS011;840;47.980;7.830;2023-02-11T06:19:06;12.15;;;8.30;;
1685;SDS011;840;47.980;7.830;2023-02-11T06:21:39;13.70;;;9.77;;
1685;SDS011;840;47.980;7.830;2023-02-11T06:24:12;16.93;;;12.90;;
1685;SDS011;840;47.980;7.830;2023-02-11T06:26:40;17.97;;;12.70;;
1685;SDS011;840;47.980;7.830;2023-02-11T06:29:24;19.63;;;14.27;;
1685;SDS011;840;47.980;7.830;2023-02-11T06:31:53;16.37;;;11.27;;
1685;SDS011;840;47.980;7.830;2023-02-11T06:34:21;10.07;;;9.03;;
1685;SDS011;840;47.980;7.830;2023-02-11T06:36:55;12.50;;;11.00;;
1685;SDS011;840;47.980;7.830;2023-02-11T06:39:23;16.48;;;10.38;;
1685;SDS011;840;47.980;7.830;2023-02-11T06:41:51;18.60;;;11.60;;
1685;SDS011;840;47.980;7.830;2023-02-11T06:44:19;14.00;;;11.77;;
1685;SDS011;840;47.980;7.830;2023-02-11T06:46:46;16.20;;;12.00;;
1685;SDS011;840;47.980;7.830;2023-02-11T06:49:17;16.40;;;10.02;;
1685;SDS011;840;47.980;7.830;2023-02-11T06:51:45;14.50;;;10.13;;
1685;SDS011;840;47.980;7.830;2023-02-11T06:54:14;11.60;;;10.10;;
1685;SDS011;840;47.980;7.830;2023-02-11T06:56:42;11.90;;;8.73;;
1685;SDS011;840;47.980;7.830;2023-02-11T06:59:11;13.00;;;9.80;;
1685;SDS011;840;47.980;7.830;2023-02-11T07:01:41;12.37;;;8.87;;
1685;SDS011;840;47.980;7.830;2023-02-11T07:04:10;13.23;;;9.20;;
1685;SDS011;840;47.980;7.830;2023-02-11T07:06:41;14.93;;;10.40;;
1685;SDS011;840;47.980;7.830;2023-02-11T07:09:12;16.60;;;11.83;;
1685;SDS011;840;47.980;7.830;2023-02-11T07:11:44;18.93;;;13.10;;
1685;SDS011;840;47.980;7.830;2023-02-11T07:14:12;19.07;;;13.50;;
1685;SDS011;840;47.980;7.830;2023-02-11T07:16:39;17.98;;;14.57;;
1685;SDS011;840;47.980;7.830;2023-02-11T07:19:22;19.57;;;13.90;;
1685;SDS011;840;47.980;7.830;2023-02-11T07:21:50;19.50;;;14.87;;
1685;SDS011;840;47.980;7.830;2023-02-11T07:24:19;18.00;;;13.50;;
1685;SDS011;840;47.980;7.830;2023-02-11T07:26:50;16.40;;;13.60;;
1685;SDS011;840;47.980;7.830;2023-02-11T07:29:26;19.23;;;14.23;;
1685;SDS011;840;47.980;7.830;2023-02-11T07:31:53;25.27;;;18.67;;
1685;SDS011;840;47.980;7.830;2023-02-11T07:34:23;25.58;;;19.60;;
1685;SDS011;840;47.980;7.830;2023-02-11T07:36:51;35.17;;;22.23;;
1685;SDS011;840;47.980;7.830;2023-02-11T07:39:21;32.70;;;22.57;;
1685;SDS011;840;47.980;7.830;2023-02-11T07:41:59;29.40;;;21.80;;
1685;SDS011;840;47.980;7.830;2023-02-11T07:44:32;27.77;;;20.67;;
1685;SDS011;840;47.980;7.830;2023-02-11T07:47:03;29.27;;;21.67;;
1685;SDS011;840;47.980;7.830;2023-02-11T07:49:34;34.93;;;21.63;;
1685;SDS011;840;47.980;7.830;2023-02-11T07:52:14;33.43;;;22.97;;
1685;SDS011;840;47.980;7.830;2023-02-11T07:54:49;30.77;;;20.87;;
1685;SDS011;840;47.980;7.830;2023-02-11T07:57:29;34.17;;;24.07;;
1685;SDS011;840;47.980;7.830;2023-02-11T08:00:01;32.13;;;24.47;;
1685;SDS011;840;47.980;7.830;2023-02-11T08:02:32;31.60;;;23.67;;
1685;SDS011;840;47.980;7.830;2023-02-11T08:05:03;31.37;;;23.30;;
1685;SDS011;840;47.980;7.830;2023-02-11T08:07:34;29.70;;;22.23;;
1685;SDS011;840;47.980;7.830;2023-02-11T08:10:03;28.17;;;20.30;;
1685;SDS011;840;47.980;7.830;2023-02-11T08:12:39;30.57;;;23.50;;
1685;SDS011;840;47.980;7.830;2023-02-11T08:15:06;31.40;;;24.07;;
1685;SDS011;840;47.980;7.830;2023-02-11T08:17:35;33.57;;;22.30;;
1685;SDS011;840;47.980;7.830;2023-02-11T08:20:03;29.20;;;21.80;;
1685;SDS011;840;47.980;7.830;2023-02-11T08:22:31;29.77;;;21.17;;
1685;SDS011;840;47.980;7.830;2023-02-11T08:24:59;26.53;;;20.20;;
1685;SDS011;840;47.980;7.830;2023-02-11T08:27:27;29.43;;;22.93;;
1685;SDS011;840;47.980;7.830;2023-02-11T08:30:02;26.73;;;19.40;;
1685;SDS011;840;47.980;7.830;2023-02-11T08:32:33;31.80;;;23.03;;
1685;SDS011;840;47.980;7.830;2023-02-11T08:35:03;32.53;;;22.83;;
1685;SDS011;840;47.980;7.830;2023-02-11T08:37:32;32.17;;;22.03;;
1685;SDS011;840;47.980;7.830;2023-02-11T08:39:59;27.60;;;21.50;;
1685;SDS011;840;47.980;7.830;2023-02-11T08:42:30;30.83;;;22.50;;
1685;SDS011;840;47.980;7.830;2023-02-11T08:44:58;27.87;;;22.20;;
1685;SDS011;840;47.980;7.830;2023-02-11T08:47:28;25.03;;;20.73;;
1685;SDS011;840;47.980;7.830;2023-02-11T08:49:57;34.00;;;22.70;;
1685;SDS011;840;47.980;7.830;2023-02-11T08:52:24;34.30;;;24.57;;
1685;SDS011;840;47.980;7.830;2023-02-11T08:54:51;30.60;;;21.53;;
1685;SDS011;840;47.980;7.830;2023-02-11T08:57:18;26.53;;;21.70;;
1685;SDS011;840;47.980;7.830;2023-02-11T08:59:47;28.60;;;20.30;;
1685;SDS011;840;47.980;7.830;2023-02-11T09:02:15;33.00;;;21.50;;
1685;SDS011;840;47.980;7.830;2023-02-11T09:04:51;23.60;;;19.17;;
1685;SDS011;840;47.980;7.830;2023-02-11T09:07:23;28.50;;;19.83;;
1685;SDS011;840;47.980;7.830;2023-02-11T09:09:55;27.63;;;18.70;;
1685;SDS011;840;47.980;7.830;2023-02-11T09:12:23;27.40;;;20.87;;
1685;SDS011;840;47.980;7.830;2023-02-11T09:14:51;25.53;;;19.73;;
1685;SDS011;840;47.980;7.830;2023-02-11T09:17:19;30.07;;;20.40;;
1685;SDS011;840;47.980;7.830;2023-02-11T09:19:45;27.27;;;19.07;;
1685;SDS011;840;47.980;7.830;2023-02-11T09:22:14;25.50;;;18.80;;
1685;SDS011;840;47.980;7.830;2023-02-11T09:24:41;27.20;;;19.23;;
1685;SDS011;840;47.980;7.830;2023-02-11T09:27:07;26.97;;;17.97;;
1685;SDS011;840;47.980;7.830;2023-02-11T09:29:34;38.20;;;23.43;;
1685;SDS011;840;47.980;7.830;2023-02-11T09:32:01;30.10;;;21.50;;
1685;SDS011;840;47.980;7.830;2023-02-11T09:34:28;36.30;;;25.80;;
1685;SDS011;840;47.980;7.830;2023-02-11T09:36:55;30.30;;;21.17;;
1685;SDS011;840;47.980;7.830;2023-02-11T09:39:24;32.50;;;24.00;;
1685;SDS011;840;47.980;7.830;2023-02-11T09:44:45;40.37;;;27.57;;
1685;SDS011;840;47.980;7.830;2023-02-11T09:47:18;34.07;;;26.50;;
1685;SDS011;840;47.980;7.830;2023-02-11T09:49:50;35.47;;;25.43;;
1685;SDS011;840;47.980;7.830;2023-02-11T09:52:23;42.00;;;26.30;;
1685;SDS011;840;47.980;7.830;2023-02-11T09:54:59;34.13;;;26.60;;
1685;SDS011;840;47.980;7.830;2023-02-11T09:57:30;36.57;;;25.87;;
1685;SDS011;840;47.980;7.830;2023-02-11T09:59:58;39.20;;;25.90;;
1685;SDS011;840;47.980;7.830;2023-02-11T10:02:28;39.10;;;29.27;;
1685;SDS011;840;47.980;7.830;2023-02-11T10:05:16;37.70;;;26.33;;
1685;SDS011;840;47.980;7.830;2023-02-11T10:07:54;34.13;;;25.37;;
1685;SDS011;840;47.980;7.830;2023-02-11T10:13:29;35.93;;;26.67;;
1685;SDS011;840;47.980;7.830;2023-02-11T10:16:07;38.17;;;29.20;;
1685;SDS011;840;47.980;7.830;2023-02-11T10:18:46;36.00;;;27.80;;
1685;SDS011;840;47.980;7.830;2023-02-11T10:21:30;36.80;;;24.57;;
1685;SDS011;840;47.980;7.830;2023-02-11T10:24:11;30.67;;;24.93;;
1685;SDS011;840;47.980;7.830;2023-02-11T10:26:41;39.67;;;27.47;;
1685;SDS011;840;47.980;7.830;2023-02-11T10:29:11;33.27;;;26.23;;
1685;SDS011;840;47.980;7.830;2023-02-11T10:31:47;29.37;;;23.80;;
1685;SDS011;840;47.980;7.830;2023-02-11T10:34:15;34.40;;;26.10;;
1685;SDS011;840;47.980;7.830;2023-02-11T10:36:43;34.07;;;25.63;;
1685;SDS011;840;47.980;7.830;2023-02-11T10:39:11;31.67;;;25.40;;
1685;SDS011;840;47.980;7.830;2023-02-11T10:41:42;39.87;;;26.90;;
1685;SDS011;840;47.980;7.830;2023-02-11T10:44:15;41.73;;;27.07;;
1685;SDS011;840;47.980;7.830;2023-02-11T10:46:49;32.70;;;25.83;;
1685;SDS011;840;47.980;7.830;2023-02-11T10:49:31;37.87;;;26.30;;
1685;SDS011;840;47.980;7.830;2023-02-11T10:52:20;36.07;;;28.27;;
1685;SDS011;840;47.980;7.830;2023-02-11T10:54:55;40.50;;;28.67;;
1685;SDS011;840;47.980;7.830;2023-02-11T10:57:29;40.33;;;28.60;;
1685;SDS011;840;47.980;7.830;2023-02-11T11:00:04;29.30;;;23.77;;
1685;SDS011;840;47.980;7.830;2023-02-11T11:02:44;32.93;;;24.93;;
1685;SDS011;840;47.980;7.830;2023-02-11T11:05:18;39.23;;;26.60;;
1685;SDS011;840;47.980;7.830;2023-02-11T11:07:56;36.67;;;27.17;;
1685;SDS011;840;47.980;7.830;2023-02-11T11:10:33;37.53;;;27.70;;
1685;SDS011;840;47.980;7.830;2023-02-11T11:13:13;38.27;;;28.60;;
1685;SDS011;840;47.980;7.830;2023-02-11T11:18:42;46.73;;;29.27;;
1685;SDS011;840;47.980;7.830;2023-02-11T11:21:11;42.47;;;29.87;;
1685;SDS011;840;47.980;7.830;2023-02-11T11:23:46;41.03;;;27.40;;
1685;SDS011;840;47.980;7.830;2023-02-11T11:26:16;40.73;;;27.37;;
1685;SDS011;840;47.980;7.830;2023-02-11T11:28:51;39.50;;;29.50;;
1685;SDS011;840;47.980;7.830;2023-02-11T11:31:22;43.43;;;30.47;;
1685;SDS011;840;47.980;7.830;2023-02-11T11:33:52;44.33;;;31.87;;
1685;SDS011;840;47.980;7.830;2023-02-11T11:36:21;40.07;;;28.90;;
1685;SDS011;840;47.980;7.830;2023-02-11T11:38:56;37.20;;;27.47;;
1685;SDS011;840;47.980;7.830;2023-02-11T11:41:27;36.17;;;28.37;;
1685;SDS011;840;47.980;7.830;2023-02-11T11:43:58;41.70;;;27.13;;
1685;SDS011;840;47.980;7.830;2023-02-11T11:46:27;44.43;;;29.10;;
1685;SDS011;840;47.980;7.830;2023-02-11T11:49:11;37.53;;;27.47;;
1685;SDS011;840;47.980;7.830;2023-02-11T11:51:50;41.33;;;27.77;;
1685;SDS011;840;47.980;7.830;2023-02-11T11:54:23;41.43;;;27.90;;
1685;SDS011;840;47.980;7.830;2023-02-11T11:56:54;34.80;;;26.43;;
1685;SDS011;840;47.980;7.830;2023-02-11T11:59:27;33.20;;;25.37;;
1685;SDS011;840;47.980;7.830;2023-02-11T12:02:10;37.00;;;25.57;;
1685;SDS011;840;47.980;7.830;2023-02-11T12:05:00;35.00;;;26.03;;
1685;SDS011;840;47.980;7.830;2023-02-11T12:07:37;30.60;;;23.00;;
1685;SDS011;840;47.980;7.830;2023-02-11T12:10:22;28.10;;;22.83;;
1685;SDS011;840;47.980;7.830;2023-02-11T12:13:21;29.60;;;22.33;;
1685;SDS011;840;47.980;7.830;2023-02-11T12:34:38;27.50;;;20.57;;
1685;SDS011;840;47.980;7.830;2023-02-11T12:37:22;29.20;;;20.80;;
1685;SDS011;840;47.980;7.830;2023-02-11T12:40:02;27.97;;;20.73;;
1685;SDS011;840;47.980;7.830;2023-02-11T12:42:43;33.47;;;21.70;;
1685;SDS011;840;47.980;7.830;2023-02-11T12:45:41;29.07;;;21.83;;
1685;SDS011;840;47.980;7.830;2023-02-11T12:48:17;30.30;;;20.73;;
1685;SDS011;840;47.980;7.830;2023-02-11T12:50:57;26.53;;;19.30;;
1685;SDS011;840;47.980;7.830;2023-02-11T12:53:35;26.83;;;19.30;;
1685;SDS011;840;47.980;7.830;2023-02-11T12:56:12;33.30;;;20.93;;
1685;SDS011;840;47.980;7.830;2023-02-11T12:58:43;28.87;;;21.87;;
1685;SDS011;840;47.980;7.830;2023-02-11T13:01:26;32.93;;;21.23;;
1685;SDS011;840;47.980;7.830;2023-02-11T13:12:33;30.03;;;22.50;;
1685;SDS011;840;47.980;7.830;2023-02-11T13:15:25;29.07;;;20.23;;
1685;SDS011;840;47.980;7.830;2023-02-11T13:18:38;30.93;;;23.07;;
1685;SDS011;840;47.980;7.830;2023-02-11T13:41:50;39.87;;;22.77;;
1685;SDS011;840;47.980;7.830;2023-02-11T13:44:32;29.30;;;21.23;;
1685;SDS011;840;47.980;7.830;2023-02-11T13:47:00;28.83;;;20.80;;
1685;SDS011;840;47.980;7.830;2023-02-11T13:49:36;25.60;;;20.10;;
1685;SDS011;840;47.980;7.830;2023-02-11T13:52:15;33.13;;;21.40;;
1685;SDS011;840;47.980;7.830;2023-02-11T13:55:04;30.73;;;18.70;;
1685;SDS011;840;47.980;7.830;2023-02-11T14:02:02;32.93;;;18.93;;
1685;SDS011;840;47.980;7.830;2023-02-11T14:05:08;28.80;;;19.40;;
1685;SDS011;840;47.980;7.830;2023-02-11T14:08:13;25.60;;;18.80;;
1685;SDS011;840;47.980;7.830;2023-02-11T14:14:15;27.17;;;18.03;;
1685;SDS011;840;47.980;7.830;2023-02-11T14:19:45;25.87;;;17.90;;
1685;SDS011;840;47.980;7.830;2023-02-11T14:22:14;28.07;;;17.77;;
1685;SDS011;840;47.980;7.830;2023-02-11T14:25:00;21.80;;;15.33;;
1685;SDS011;840;47.980;7.830;2023-02-11T14:27:44;20.90;;;15.60;;
1685;SDS011;840;47.980;7.830;2023-02-11T14:30:29;21.00;;;15.10;;
1685;SDS011;840;47.980;7.830;2023-02-11T14:33:32;21.47;;;13.07;;
1685;SDS011;840;47.980;7.830;2023-02-11T14:36:36;20.77;;;13.50;;
1685;SDS011;840;47.980;7.830;2023-02-11T14:39:57;20.27;;;13.40;;
1685;SDS011;840;47.980;7.830;2023-02-11T14:42:31;16.80;;;12.67;;
1685;SDS011;840;47.980;7.830;2023-02-11T14:45:02;17.93;;;12.50;;
1685;SDS011;840;47.980;7.830;2023-02-11T14:47:33;19.20;;;13.07;;
1685;SDS011;840;47.980;7.830;2023-02-11T14:50:10;23.73;;;16.40;;
1685;SDS011;840;47.980;7.830;2023-02-11T14:52:45;23.77;;;15.00;;
1685;SDS011;840;47.980;7.830;2023-02-11T15:00:54;16.30;;;12.80;;
1685;SDS011;840;47.980;7.830;2023-02-11T15:07:16;12.67;;;7.93;;
1685;SDS011;840;47.980;7.830;2023-02-11T15:09:52;28.83;;;9.53;;
1685;SDS011;840;47.980;7.830;2023-02-11T15:12:21;12.77;;;8.63;;
1685;SDS011;840;47.980;7.830;2023-02-11T15:14:54;13.80;;;8.53;;
1685;SDS011;840;47.980;7.830;2023-02-11T15:17:26;14.93;;;8.90;;
1685;SDS011;840;47.980;7.830;2023-02-11T15:23:24;11.60;;;9.00;;
1685;SDS011;840;47.980;7.830;2023-02-11T15:25:54;14.23;;;9.23;;
1685;SDS011;840;47.980;7.830;2023-02-11T15:28:22;14.87;;;9.23;;
1685;SDS011;840;47.980;7.830;2023-02-11T15:30:56;16.57;;;10.20;;
1685;SDS011;840;47.980;7.830;2023-02-11T15:33:24;18.67;;;11.13;;
1685;SDS011;840;47.980;7.830;2023-02-11T15:35:54;15.20;;;10.80;;
1685;SDS011;840;47.980;7.830;2023-02-11T15:38:24;14.50;;;10.63;;
1685;SDS011;840;47.980;7.830;2023-02-11T15:40:55;15.77;;;10.67;;
1685;SDS011;840;47.980;7.830;2023-02-11T15:43:25;18.20;;;11.90;;
1685;SDS011;840;47.980;7.830;2023-02-11T15:46:06;18.90;;;11.97;;
1685;SDS011;840;47.980;7.830;2023-02-11T15:48:36;15.13;;;11.00;;
1685;SDS011;840;47.980;7.830;2023-02-11T15:51:07;18.73;;;11.93;;
1685;SDS011;840;47.980;7.830;2023-02-11T15:53:46;15.97;;;12.40;;
1685;SDS011;840;47.980;7.830;2023-02-11T15:56:29;16.60;;;11.70;;
1685;SDS011;840;47.980;7.830;2023-02-11T15:59:07;15.40;;;11.87;;
1685;SDS011;840;47.980;7.830;2023-02-11T16:01:45;17.10;;;12.10;;
1685;SDS011;840;47.980;7.830;2023-02-11T16:04:14;15.23;;;11.60;;
1685;SDS011;840;47.980;7.830;2023-02-11T16:06:44;15.47;;;11.87;;
1685;SDS011;840;47.980;7.830;2023-02-11T16:09:24;17.63;;;11.90;;
1685;SDS011;840;47.980;7.830;2023-02-11T16:11:57;14.60;;;11.30;;
1685;SDS011;840;47.980;7.830;2023-02-11T16:14:32;17.60;;;12.40;;
1685;SDS011;840;47.980;7.830;2023-02-11T16:17:20;17.50;;;12.77;;
1685;SDS011;840;47.980;7.830;2023-02-11T16:22:21;14.50;;;11.93;;
1685;SDS011;840;47.980;7.830;2023-02-11T16:24:53;17.70;;;13.03;;
1685;SDS011;840;47.980;7.830;2023-02-11T16:27:23;14.27;;;11.53;;
1685;SDS011;840;47.980;7.830;2023-02-11T16:29:54;16.10;;;12.90;;
1685;SDS011;840;47.980;7.830;2023-02-11T16:32:23;25.30;;;19.03;;
1685;SDS011;840;47.980;7.830;2023-02-11T16:34:51;27.93;;;21.87;;
1685;SDS011;840;47.980;7.830;2023-02-11T16:37:22;21.27;;;16.30;;
1685;SDS011;840;47.980;7.830;2023-02-11T16:39:53;19.73;;;15.80;;
1685;SDS011;840;47.980;7.830;2023-02-11T16:42:20;23.10;;;16.93;;
1685;SDS011;840;47.980;7.830;2023-02-11T16:44:47;23.03;;;16.57;;
1685;SDS011;840;47.980;7.830;2023-02-11T16:47:16;20.27;;;14.00;;
1685;SDS011;840;47.980;7.830;2023-02-11T16:49:48;19.60;;;14.60;;
1685;SDS011;840;47.980;7.830;2023-02-11T16:52:15;21.30;;;14.47;;
1685;SDS011;840;47.980;7.830;2023-02-11T16:54:44;22.00;;;13.60;;
1685;SDS011;840;47.980;7.830;2023-02-11T16:57:14;18.87;;;13.90;;
1685;SDS011;840;47.980;7.830;2023-02-11T16:59:43;19.63;;;14.73;;
1685;SDS011;840;47.980;7.830;2023-02-11T17:02:12;16.10;;;14.40;;
1685;SDS011;840;47.980;7.830;2023-02-11T17:04:43;20.50;;;14.40;;